Taiseimaru — JL6483 — position and weather

sailwx.info

Track history (hours):
 
Tides and Currents Weather Stations Pressure Air Temp Water Temp Dewpoint Dewpoint Depression Visibility Wind Speed Wind Dir Waves Ship Positions

Taiseimaru

Last reported at 2015-Jul-31 20:29 UTC. Time now 2015-Jul-31 21:28 UTC.
Position N 35°56' E 140°41'.

Length 84 m; draft 4.7 m.

Type: Cargo ship. MMSI: 431500568.

Date/timePositionNaut miles runAvg speedWind from/ knotsBaromVisibWave heightAir tempDewpointWater temp
2015-Jul-31 20:29N 35°56' E 140°41'4 4.1
2015-Jul-31 19:33N 35°59' E 140°42'0 0.3
2015-Jul-31 18:30N 35°60' E 140°42'0 0.0
2015-Jul-31 09:32N 35°60' E 140°42'0 0.0
2015-Jul-31 08:29N 35°60' E 140°42'0 0.0
2015-Jul-31 05:29N 35°60' E 140°42'0 0.0
2015-Jul-30 20:23N 35°60' E 140°42'0 0.0
2015-Jul-30 18:29N 35°60' E 140°42'8 8.9
2015-Jul-30 17:33N 36°07' E 140°47'1212.0
2015-Jul-30 16:34N 36°18' E 140°51'1211.8
2015-Jul-30 15:33N 36°30' E 140°56'1211.8
2015-Jul-30 14:34N 36°41' E 141°00'1211.4
2015-Jul-30 13:33N 36°51' E 141°07'1212.0
2015-Jul-30 12:33N 37°02' E 141°13'1211.9
2015-Jul-30 11:34N 37°13' E 141°18'1212.0
2015-Jul-30 10:33N 37°24' E 141°24'  
2015-Jul-26 02:09N 35°48' E 140°59'711.6
2015-Jul-26 01:33N 35°41' E 140°58'1211.3
2015-Jul-26 00:29N 35°31' E 140°50'1211.8
2015-Jul-25 23:29N 35°22' E 140°40'2611.7
2015-Jul-25 21:16N 35°03' E 140°18'811.1
2015-Jul-25 20:33N 34°59' E 140°10'1111.0
2015-Jul-25 19:33N 34°53' E 139°58'1211.7
2015-Jul-25 18:32N 34°50' E 139°44'1712.7
2015-Jul-25 17:13N 34°51' E 139°24'  
Track history (hours):
 
Tides and Currents Weather Stations Pressure Air Temp Water Temp Dewpoint Dewpoint Depression Visibility Wind Speed Wind Dir Waves Ship Positions

Taiseimaru

Last reported at 2015-Jul-31 20:29 UTC. Time now 2015-Jul-31 21:28 UTC.
Position N 35°56' E 140°41'.

Length 84 m; draft 4.7 m.

Type: Cargo ship. MMSI: 431500568.

Date/timePositionNaut miles runAvg speedWind from/ knotsBaromVisibWave heightAir tempDewpointWater temp
2015-Jul-31 20:29N 35°56' E 140°41'4 4.1
2015-Jul-31 19:33N 35°59' E 140°42'0 0.3
2015-Jul-31 18:30N 35°60' E 140°42'0 0.0
2015-Jul-31 09:32N 35°60' E 140°42'0 0.0
2015-Jul-31 08:29N 35°60' E 140°42'0 0.0
2015-Jul-31 05:29N 35°60' E 140°42'0 0.0
2015-Jul-30 20:23N 35°60' E 140°42'0 0.0
2015-Jul-30 18:29N 35°60' E 140°42'8 8.9
2015-Jul-30 17:33N 36°07' E 140°47'1212.0
2015-Jul-30 16:34N 36°18' E 140°51'1211.8
2015-Jul-30 15:33N 36°30' E 140°56'1211.8
2015-Jul-30 14:34N 36°41' E 141°00'1211.4
2015-Jul-30 13:33N 36°51' E 141°07'1212.0
2015-Jul-30 12:33N 37°02' E 141°13'1211.9
2015-Jul-30 11:34N 37°13' E 141°18'1212.0
2015-Jul-30 10:33N 37°24' E 141°24'  
2015-Jul-26 02:09N 35°48' E 140°59'711.6
2015-Jul-26 01:33N 35°41' E 140°58'1211.3
2015-Jul-26 00:29N 35°31' E 140°50'1211.8
2015-Jul-25 23:29N 35°22' E 140°40'2611.7
2015-Jul-25 21:16N 35°03' E 140°18'811.1
2015-Jul-25 20:33N 34°59' E 140°10'1111.0
2015-Jul-25 19:33N 34°53' E 139°58'1211.7
2015-Jul-25 18:32N 34°50' E 139°44'1712.7
2015-Jul-25 17:13N 34°51' E 139°24'  

Dump ship's entire track history